Time;durP1;ratioP1;P1;durP2;ratioP2;P2;SDS_P1;SDS_P2;PMS_P1;PMS_P2;Temp;Humidity;BMP_temperature;BMP_pressure;BME280_temperature;BME280_humidity;BME280_pressure;Samples;Min_cycle;Max_cycle;Signal;HPM_P1;HPM_P2
2023/10/23 00:00:06;;;;;;;4.40;1.42;;;;;;;14.26;61.46;99761.12;7736520;32;37616;-80
2023/10/23 00:04:22;;;;;;;7.35;1.45;;;;;;;14.25;61.40;99759.50;7736278;32;39946;-80
2023/10/23 00:08:38;;;;;;;1.52;1.40;;;;;;;14.19;61.54;99775.19;7735956;32;40901;-80
2023/10/23 00:12:55;;;;;;;3.65;1.50;;;;;;;14.18;61.69;99762.63;7736105;32;37910;-80
2023/10/23 00:17:11;;;;;;;3.35;2.03;;;;;;;14.20;61.50;99771.34;7722332;32;37248;-80
2023/10/23 00:21:27;;;;;;;3.20;1.60;;;;;;;14.07;61.78;99777.56;7735912;32;39305;-80
2023/10/23 00:25:44;;;;;;;3.40;1.92;;;;;;;13.85;62.44;99789.13;7735821;32;40766;-79
2023/10/23 00:30:01;;;;;;;7.37;2.10;;;;;;;14.15;61.70;99787.06;7735646;32;37859;-80
2023/10/23 00:34:20;;;;;;;4.57;2.00;;;;;;;14.01;62.42;99776.03;7735660;32;37758;-80
2023/10/23 00:38:37;;;;;;;3.12;1.83;;;;;;;13.95;62.49;99771.72;7735489;32;39408;-80
2023/10/23 00:42:53;;;;;;;8.60;1.95;;;;;;;13.82;62.63;99774.06;7737603;32;40894;-80
2023/10/23 00:47:10;;;;;;;5.95;1.73;;;;;;;13.81;62.40;99772.44;7734297;32;156085;-80
2023/10/23 00:51:29;;;;;;;4.68;1.98;;;;;;;13.94;61.91;99767.34;7725676;32;37180;-80
2023/10/23 00:55:46;;;;;;;3.35;1.80;;;;;;;13.84;61.47;99766.38;7739355;32;40219;-80
2023/10/23 01:00:04;;;;;;;6.85;2.40;;;;;;;13.70;61.62;99770.94;7739100;32;39968;-80
2023/10/23 01:04:20;;;;;;;9.55;3.17;;;;;;;13.66;62.07;99767.97;7739135;32;38753;-80
2023/10/23 01:08:37;;;;;;;6.07;2.42;;;;;;;13.79;61.65;99769.16;7739207;32;37168;-80
2023/10/23 01:12:54;;;;;;;5.18;1.85;;;;;;;13.84;60.94;99780.06;7738973;32;39275;-80
2023/10/23 01:17:10;;;;;;;4.45;1.75;;;;;;;13.68;61.14;99767.69;7739140;32;40761;-80
2023/10/23 01:21:27;;;;;;;3.37;1.80;;;;;;;13.64;60.63;99775.69;7738933;32;37812;-80
2023/10/23 01:25:43;;;;;;;3.95;1.98;;;;;;;13.74;60.22;99776.66;7738907;32;37102;-80
2023/10/23 01:29:59;;;;;;;1.52;1.40;;;;;;;13.75;60.17;99775.56;7738850;32;40124;-80
2023/10/23 01:34:15;;;;;;;3.35;1.50;;;;;;;13.71;60.32;99775.28;7725007;32;39865;-80
2023/10/23 01:38:31;;;;;;;2.17;1.40;;;;;;;13.70;60.41;99779.97;7738755;32;37947;-80
2023/10/23 01:42:48;;;;;;;4.03;1.50;;;;;;;13.64;60.47;99774.84;7738775;32;36834;-80
2023/10/23 01:47:05;;;;;;;1.37;1.27;;;;;;;13.41;61.20;99780.03;7738643;32;39354;-81
2023/10/23 01:51:22;;;;;;;1.98;1.20;;;;;;;13.22;61.99;99776.38;7738582;32;40068;-76
2023/10/23 01:55:38;;;;;;;2.97;1.40;;;;;;;13.58;64.03;99770.53;7738348;32;37690;-80
2023/10/23 01:59:55;;;;;;;2.80;1.92;;;;;;;13.60;64.45;99773.81;7738407;32;36746;-80
2023/10/23 02:04:11;;;;;;;9.25;2.22;;;;;;;13.42;63.07;99776.19;7738480;32;39388;-80
2023/10/23 02:08:28;;;;;;;5.57;1.75;;;;;;;13.46;62.56;99771.75;7738583;32;40018;-80
2023/10/23 02:12:44;;;;;;;2.00;1.77;;;;;;;13.43;62.13;99768.78;7738477;32;37784;-78
2023/10/23 02:17:00;;;;;;;4.50;1.80;;;;;;;13.56;61.55;99770.03;7738384;32;37852;-80
2023/10/23 02:21:16;;;;;;;3.80;1.90;;;;;;;13.40;61.62;99772.94;7724475;32;40064;-80
2023/10/23 02:25:33;;;;;;;2.37;1.70;;;;;;;13.36;61.81;99771.87;7738249;32;40156;-79
2023/10/23 02:29:49;;;;;;;3.55;1.60;;;;;;;13.19;62.12;99771.47;7738118;32;38622;-80
2023/10/23 02:34:05;;;;;;;4.80;1.55;;;;;;;13.09;62.29;99767.75;7738225;32;37037;-79
2023/10/23 02:38:22;;;;;;;3.85;1.62;;;;;;;13.09;62.48;99773.22;7738154;32;40246;-79
2023/10/23 02:42:38;;;;;;;2.45;1.50;;;;;;;13.25;61.92;99775.81;7738027;32;39868;-80
2023/10/23 02:46:54;;;;;;;3.05;1.60;;;;;;;13.21;61.91;99777.47;7737823;32;38384;-80
2023/10/23 02:51:10;;;;;;;3.05;1.50;;;;;;;13.25;61.63;99771.16;7737671;32;37794;-80
2023/10/23 02:55:27;;;;;;;4.03;1.60;;;;;;;13.29;61.29;99774.91;7737957;32;39505;-79
2023/10/23 02:59:46;;;;;;;1.98;1.50;;;;;;;13.41;60.95;99771.81;7737803;32;40174;-80
2023/10/23 03:04:03;;;;;;;3.17;1.33;;;;;;;13.29;61.28;99772.19;7737071;32;37939;-80
2023/10/23 03:08:20;;;;;;;2.50;1.35;;;;;;;13.18;61.82;99769.84;7737714;32;37007;-79
2023/10/23 03:12:36;;;;;;;3.53;1.35;;;;;;;13.45;60.95;99774.78;7737452;32;39455;-80
2023/10/23 03:16:52;;;;;;;1.60;1.27;;;;;;;13.44;61.16;99773.16;7737476;32;40605;-80
2023/10/23 03:21:08;;;;;;;7.87;1.62;;;;;;;13.21;61.98;99785.69;7736755;32;37814;-79
2023/10/23 03:25:25;;;;;;;1.70;1.35;;;;;;;13.19;62.29;99788.72;7737359;32;37933;-79
2023/10/23 03:29:44;;;;;;;3.85;1.30;;;;;;;13.09;62.53;99788.81;7737277;32;39340;-79
2023/10/23 03:34:00;;;;;;;3.90;1.67;;;;;;;13.09;62.30;99786.91;7737181;32;41278;-78
2023/10/23 03:38:17;;;;;;;1.90;1.20;;;;;;;13.02;62.27;99794.66;7737016;32;38341;-78
2023/10/23 03:42:33;;;;;;;2.83;1.33;;;;;;;13.27;61.38;99790.03;7736866;32;38186;-80
2023/10/23 03:46:49;;;;;;;2.83;1.33;;;;;;;13.07;61.80;99786.38;7736397;32;39982;-80
2023/10/23 03:51:05;;;;;;;2.92;1.40;;;;;;;13.14;61.58;99796.97;7736689;32;39924;-80
2023/10/23 03:55:22;;;;;;;5.75;1.62;;;;;;;13.17;61.47;99801.06;7736662;32;38590;-79
2023/10/23 03:59:41;;;;;;;2.90;1.52;;;;;;;13.12;61.73;99802.78;7736537;32;37578;-79
2023/10/23 04:03:57;;;;;;;2.72;1.30;;;;;;;13.30;61.18;99798.47;7736437;32;39412;-79
2023/10/23 04:08:14;;;;;;;4.32;1.83;;;;;;;13.13;61.18;99804.38;7736301;32;40807;-79
2023/10/23 04:12:31;;;;;;;3.65;1.62;;;;;;;13.10;61.26;99799.47;7735995;32;37756;-79
2023/10/23 04:16:47;;;;;;;3.20;1.45;;;;;;;12.67;62.74;99810.25;7737221;32;38487;-79
2023/10/23 04:21:12;;;;;;;1.90;1.35;;;;;;;13.04;61.74;99819.81;7739641;32;40661;-79
2023/10/23 04:25:28;;;;;;;1.83;1.42;;;;;;;12.93;61.89;99827.25;7739677;32;39992;-79
2023/10/23 04:29:45;;;;;;;3.92;1.37;;;;;;;12.77;62.24;99829.31;7739733;32;38691;-79
2023/10/23 04:34:01;;;;;;;1.98;1.40;;;;;;;12.90;62.14;99829.75;7739630;32;37177;-79
2023/10/23 04:38:17;;;;;;;1.98;1.35;;;;;;;12.84;62.35;99836.38;7739641;32;40237;-78
2023/10/23 04:42:33;;;;;;;2.97;1.50;;;;;;;12.89;62.45;99828.94;7738851;32;39995;-80
2023/10/23 04:46:50;;;;;;;3.85;1.27;;;;;;;12.80;63.01;99832.56;7739102;32;38866;-79
2023/10/23 04:51:06;;;;;;;4.60;1.30;;;;;;;12.79;63.27;99823.56;7739052;32;36878;-80
2023/10/23 04:55:22;;;;;;;5.40;2.00;;;;;;;12.54;64.19;99849.19;7739346;32;39296;-80
2023/10/23 04:59:38;;;;;;;1.33;1.23;;;;;;;12.75;63.62;99844.38;7739287;32;40566;-80
2023/10/23 05:03:55;;;;;;;1.52;1.33;;;;;;;12.75;63.59;99850.66;7739212;32;38697;-80
2023/10/23 05:08:11;;;;;;;1.83;1.60;;;;;;;12.92;63.01;99846.72;7739136;32;38076;-80
2023/10/23 05:12:28;;;;;;;1.42;1.33;;;;;;;12.90;62.76;99847.00;7738730;32;39282;-79
2023/10/23 05:16:44;;;;;;;5.10;1.70;;;;;;;12.90;62.63;99851.66;7738652;32;40654;-79
2023/10/23 05:21:11;;;;;;;1.83;1.45;;;;;;;12.84;62.76;99850.06;7738905;32;38677;-79
2023/10/23 05:25:27;;;;;;;2.10;1.45;;;;;;;12.94;62.66;99841.78;7738329;32;36967;-79
2023/10/23 05:29:44;;;;;;;4.25;1.70;;;;;;;12.72;63.13;99851.22;7738593;32;40019;-79
2023/10/23 05:34:00;;;;;;;2.35;1.50;;;;;;;12.85;62.85;99854.41;7738833;32;39689;-79
2023/10/23 05:38:16;;;;;;;2.10;1.30;;;;;;;12.90;62.97;99865.31;7738766;32;37661;-79
2023/10/23 05:42:32;;;;;;;3.47;1.60;;;;;;;12.93;62.79;99862.84;7738544;32;37067;-79
2023/10/23 05:46:49;;;;;;;1.83;1.40;;;;;;;12.96;62.76;99869.66;7738154;32;39544;-78
2023/10/23 05:51:06;;;;;;;1.90;1.40;;;;;;;12.87;63.29;99863.19;7738768;32;40007;-78
2023/10/23 05:55:23;;;;;;;2.80;2.03;;;;;;;13.11;63.50;99868.75;7738478;32;38535;-80
2023/10/23 05:59:39;;;;;;;5.25;1.50;;;;;;;13.24;62.92;99868.06;7738524;32;37839;-71
2023/10/23 06:03:56;;;;;;;2.12;1.42;;;;;;;13.24;63.39;99875.47;7738489;32;40109;-80
2023/10/23 06:08:12;;;;;;;5.80;1.87;;;;;;;13.39;62.69;99872.63;7738682;32;40622;-76
2023/10/23 06:12:28;;;;;;;2.58;1.87;;;;;;;13.39;62.35;99880.81;7738383;32;37719;-80
2023/10/23 06:16:44;;;;;;;3.33;2.60;;;;;;;13.31;63.14;99886.87;7737703;32;37023;-79
2023/10/23 06:21:05;;;;;;;3.95;1.90;;;;;;;13.37;62.97;99902.22;7738567;32;39387;-79
2023/10/23 06:25:22;;;;;;;2.65;2.00;;;;;;;13.55;62.63;99897.13;7737564;32;40801;-80
2023/10/23 06:29:38;;;;;;;4.68;3.12;;;;;;;13.54;62.78;99899.03;7737708;32;38516;-80
2023/10/23 06:33:54;;;;;;;3.90;2.30;;;;;;;13.31;64.11;99892.38;7737633;32;38036;-80
2023/10/23 06:38:11;;;;;;;2.20;2.00;;;;;;;13.34;64.41;99900.03;7737610;32;39332;-80
2023/10/23 06:42:27;;;;;;;3.67;2.15;;;;;;;13.76;63.47;99893.03;7737526;32;39968;-81
2023/10/23 06:46:43;;;;;;;3.92;2.30;;;;;;;13.95;62.71;99890.38;7737673;32;37977;-79
2023/10/23 06:51:00;;;;;;;5.20;2.45;;;;;;;13.96;62.66;99882.97;7738434;32;35915;-80
2023/10/23 06:55:18;;;;;;;3.05;2.40;;;;;;;13.72;63.10;99883.78;7738017;32;39959;-80
2023/10/23 06:59:34;;;;;;;10.23;2.90;;;;;;;13.32;64.55;99896.78;7737797;32;39844;-72
2023/10/23 07:03:53;;;;;;;5.20;2.60;;;;;;;13.60;64.44;99899.81;7735589;32;36830;-80
2023/10/23 07:08:09;;;;;;;11.63;2.50;;;;;;;13.94;63.85;99891.50;7736520;32;37426;-80
2023/10/23 07:12:26;;;;;;;5.70;2.60;;;;;;;14.08;63.97;99886.94;7737297;32;39418;-80
2023/10/23 07:16:42;;;;;;;5.28;2.60;;;;;;;13.73;64.87;99896.38;7737491;32;40595;-81
2023/10/23 07:21:02;;;;;;;3.87;2.08;;;;;;;14.13;64.30;99893.47;7737272;32;38035;-80
2023/10/23 07:25:18;;;;;;;4.57;2.00;;;;;;;14.34;63.16;99894.84;7736178;32;37007;-81
2023/10/23 07:29:34;;;;;;;3.12;1.67;;;;;;;14.49;63.10;99893.00;7723337;32;38996;-81
2023/10/23 07:33:50;;;;;;;3.87;1.80;;;;;;;13.87;64.32;99891.84;7737693;32;39666;-81
2023/10/23 07:38:07;;;;;;;2.45;1.70;;;;;;;13.92;63.67;99903.84;7736337;32;38814;-84
2023/10/23 07:42:25;;;;;;;2.92;1.85;;;;;;;13.66;64.71;99896.72;7736659;32;38052;-79
2023/10/23 07:46:43;;;;;;;4.95;2.05;;;;;;;14.16;63.52;99893.72;7736543;32;41443;-81
2023/10/23 07:51:03;;;;;;;2.60;1.70;;;;;;;14.33;63.22;99897.88;7737330;32;39303;-79
2023/10/23 07:55:19;;;;;;;4.68;1.73;;;;;;;14.15;63.76;99904.97;7739738;32;38639;-78
2023/10/23 07:59:36;;;;;;;3.83;2.00;;;;;;;14.71;63.12;99897.94;7740103;32;37392;-81
2023/10/23 08:03:52;;;;;;;5.28;1.80;;;;;;;14.73;62.72;99901.19;7739932;32;39098;-82
2023/10/23 08:08:09;;;;;;;8.90;1.90;;;;;;;15.12;61.29;99897.31;7740258;32;38987;-80
2023/10/23 08:12:26;;;;;;;4.45;1.87;;;;;;;14.98;61.52;99891.75;7739648;32;38084;-79
2023/10/23 08:16:42;;;;;;;3.60;1.65;;;;;;;15.74;60.64;99877.81;7739713;32;37750;-79
2023/10/23 08:21:00;;;;;;;4.68;1.90;;;;;;;15.79;59.56;99894.22;7739592;32;39826;-80
2023/10/23 08:25:20;;;;;;;3.58;1.90;;;;;;;16.01;60.16;99889.97;7737146;32;40747;-80
2023/10/23 08:29:37;;;;;;;4.55;1.90;;;;;;;16.29;59.11;99899.03;7737557;32;38521;-81
2023/10/23 08:33:53;;;;;;;4.20;2.05;;;;;;;16.75;57.95;99888.91;7739058;32;37175;-78
2023/10/23 08:38:10;;;;;;;2.85;1.70;;;;;;;16.84;58.21;99893.41;7738839;32;39138;-79
2023/10/23 08:42:27;;;;;;;3.80;2.12;;;;;;;17.25;57.07;99880.59;7739234;32;39800;-79
2023/10/23 08:46:43;;;;;;;2.90;1.85;;;;;;;16.91;58.00;99883.94;7739193;32;37894;-81
2023/10/23 08:51:00;;;;;;;4.25;2.05;;;;;;;16.58;57.67;99882.16;7739347;32;37798;-79
2023/10/23 08:55:17;;;;;;;4.30;2.28;;;;;;;16.69;58.23;99885.47;7739273;32;39465;-82
2023/10/23 08:59:33;;;;;;;6.47;1.90;;;;;;;17.01;56.85;99886.44;7724759;32;40217;-81
2023/10/23 09:03:50;;;;;;;4.87;1.80;;;;;;;17.11;56.19;99893.63;7738142;32;38830;-80
2023/10/23 09:08:20;;;;;;;4.60;1.90;;;;;;;17.17;55.41;99889.63;7738930;32;36840;-79
2023/10/23 09:12:37;;;;;;;6.43;3.30;;;;;;;17.79;55.05;99880.56;7738382;32;39782;-81
2023/10/23 09:16:56;;;;;;;3.42;1.65;;;;;;;18.27;52.70;99879.78;7738513;32;39896;-80
2023/10/23 09:21:15;;;;;;;3.10;1.73;;;;;;;18.21;52.66;99870.00;7738969;32;37868;-80
2023/10/23 09:25:31;;;;;;;2.17;1.50;;;;;;;18.93;51.49;99873.38;7738499;32;37241;-80
2023/10/23 09:29:58;;;;;;;4.07;1.80;;;;;;;18.85;51.52;99872.25;7738026;32;40121;-80
2023/10/23 09:34:14;;;;;;;3.03;1.73;;;;;;;19.28;50.63;99870.56;7727761;32;39727;-80
2023/10/23 09:38:32;;;;;;;7.55;2.22;;;;;;;18.95;50.51;99860.03;7738080;32;37996;-80
2023/10/23 09:42:49;;;;;;;3.92;1.87;;;;;;;19.37;49.56;99854.78;7737328;32;37921;-78
2023/10/23 09:47:07;;;;;;;6.70;1.80;;;;;;;19.51;49.65;99855.38;7737790;32;39478;-77
2023/10/23 09:51:26;;;;;;;5.12;1.67;;;;;;;19.81;49.02;99860.19;7738215;32;40903;-78
2023/10/23 09:55:44;;;;;;;2.90;1.40;;;;;;;20.26;47.14;99852.12;7738061;32;37666;-78
2023/10/23 10:00:05;;;;;;;1.70;1.30;;;;;;;21.31;45.71;99851.25;7724645;32;38179;-78
2023/10/23 10:04:36;;;;;;;4.32;1.30;;;;;;;22.22;42.50;99833.66;7738325;32;39371;-78
2023/10/23 10:08:53;;;;;;;1.92;1.40;;;;;;;22.77;40.77;99828.56;7735492;32;39649;-78
2023/10/23 10:13:11;;;;;;;3.10;1.40;;;;;;;22.69;40.47;99815.63;7726879;32;38164;-74
2023/10/23 10:17:28;;;;;;;1.98;1.30;;;;;;;23.62;38.56;99826.50;7737550;32;36985;-73
2023/10/23 10:21:56;;;;;;;3.50;1.60;;;;;;;23.66;37.07;99823.78;7736120;32;39235;-77
2023/10/23 10:26:12;;;;;;;2.10;1.30;;;;;;;23.78;38.14;99817.34;7735331;32;40022;-71
2023/10/23 10:30:46;;;;;;;5.12;1.27;;;;;;;23.84;38.02;99810.37;7719756;32;37972;-74
2023/10/23 10:35:03;;;;;;;2.62;1.37;;;;;;;24.16;35.33;99813.06;7737337;32;37180;-74
2023/10/23 10:39:20;;;;;;;2.47;0.95;;;;;;;24.39;36.77;99810.41;7736636;32;37401;-73
2023/10/23 10:43:41;;;;;;;2.65;1.20;;;;;;;24.59;35.05;99797.31;7735232;32;40808;-73
2023/10/23 10:47:59;;;;;;;5.05;1.45;;;;;;;24.57;35.83;99808.03;7720583;32;38010;-74
2023/10/23 10:52:36;;;;;;;2.35;1.40;;;;;;;24.90;34.67;99803.91;7736904;32;38040;-75
2023/10/23 10:56:53;;;;;;;4.53;1.40;;;;;;;25.48;33.49;99789.88;7737389;32;39408;-75
2023/10/23 11:01:09;;;;;;;3.95;1.37;;;;;;;25.58;33.03;99782.84;7737338;32;40797;-75
2023/10/23 11:05:26;;;;;;;2.65;1.20;;;;;;;25.98;30.64;99783.50;7736800;32;38687;-70
2023/10/23 11:09:43;;;;;;;2.08;1.20;;;;;;;25.75;32.67;99784.31;7736275;32;37086;-74
2023/10/23 11:14:00;;;;;;;1.52;0.98;;;;;;;25.78;32.06;99791.94;7735771;32;39481;-75
2023/10/23 11:18:19;;;;;;;4.00;0.98;;;;;;;25.71;30.18;99777.06;7736387;32;39694;-74
2023/10/23 11:22:36;;;;;;;1.30;0.80;;;;;;;25.94;30.05;99771.41;7721422;32;38635;-73
2023/10/23 11:26:53;;;;;;;2.03;0.80;;;;;;;25.62;30.75;99763.38;7723645;32;37109;-73
2023/10/23 11:31:12;;;;;;;2.78;1.00;;;;;;;24.94;29.65;99771.34;7736853;32;40239;-73
2023/10/23 11:35:34;;;;;;;1.40;0.70;;;;;;;24.66;30.92;99777.94;7737244;32;40559;-72
2023/10/23 11:39:50;;;;;;;2.03;0.80;;;;;;;24.45;32.61;99758.00;7736003;32;37605;-72
2023/10/23 11:44:07;;;;;;;2.10;0.90;;;;;;;24.57;31.25;99757.87;7723003;32;37157;-72
2023/10/23 11:48:24;;;;;;;1.00;0.85;;;;;;;24.72;31.26;99759.78;7722393;32;39524;-73
2023/10/23 11:52:49;;;;;;;5.30;1.12;;;;;;;24.92;31.66;99756.94;7736482;32;40818;-71
2023/10/23 11:57:06;;;;;;;1.67;0.90;;;;;;;25.22;30.97;99753.53;7736538;32;37975;-73
2023/10/23 12:01:22;;;;;;;5.18;1.23;;;;;;;25.26;31.89;99740.47;7736462;32;37573;-74
2023/10/23 12:05:39;;;;;;;2.65;1.40;;;;;;;25.41;30.85;99725.56;7736160;32;39372;-83
2023/10/23 12:09:55;;;;;;;1.87;1.10;;;;;;;24.97;31.13;99722.38;7722210;32;41108;-81
2023/10/23 12:14:11;;;;;;;3.72;1.10;;;;;;;25.30;30.81;99719.81;7735588;32;38630;-83
2023/10/23 12:18:28;;;;;;;1.77;1.40;;;;;;;25.08;31.70;99713.03;7735806;32;38043;-84
2023/10/23 12:22:46;;;;;;;4.60;1.30;;;;;;;24.61;31.95;99716.12;7735839;32;39241;-80
2023/10/23 12:27:02;;;;;;;2.50;1.30;;;;;;;24.70;33.02;99711.97;7735073;32;40737;-79
2023/10/23 12:31:18;;;;;;;2.10;1.30;;;;;;;25.13;32.16;99700.78;7735499;32;37574;-80
2023/10/23 12:35:39;;;;;;;3.20;1.27;;;;;;;25.40;32.79;99710.00;7733237;32;37115;-82
2023/10/23 12:39:58;;;;;;;4.05;1.65;;;;;;;25.90;31.06;99714.72;7738003;32;39434;-80
2023/10/23 12:44:14;;;;;;;17.98;8.20;;;;;;;25.82;31.55;99711.03;7739335;32;39306;-80
2023/10/23 12:48:30;;;;;;;3.03;1.40;;;;;;;26.03;31.38;99716.16;7738737;32;37489;-81
2023/10/23 12:52:47;;;;;;;3.80;1.73;;;;;;;26.03;31.28;99716.16;7737826;32;37762;-80
2023/10/23 12:57:05;;;;;;;5.05;1.80;;;;;;;25.83;31.50;99724.59;7739317;32;39972;-81
2023/10/23 13:01:21;;;;;;;4.65;1.87;;;;;;;26.00;30.71;99712.09;7739353;32;40087;-80
2023/10/23 13:05:38;;;;;;;6.47;3.10;;;;;;;25.11;31.76;99715.09;7724699;32;38539;-81
2023/10/23 13:09:54;;;;;;;3.75;1.55;;;;;;;25.12;31.83;99702.75;7738867;32;37643;-81
2023/10/23 13:14:10;;;;;;;3.87;1.42;;;;;;;25.62;31.84;99693.59;7739125;32;40156;-81
2023/10/23 13:18:27;;;;;;;3.85;1.20;;;;;;;25.75;31.69;99697.78;7739089;32;40852;-82
2023/10/23 13:22:43;;;;;;;7.37;3.28;;;;;;;25.93;30.84;99698.00;7738941;32;38050;-80
2023/10/23 13:27:03;;;;;;;7.25;2.00;;;;;;;25.74;31.30;99693.38;7738720;32;37895;-79
2023/10/23 13:31:19;;;;;;;1.70;1.12;;;;;;;25.65;31.74;99696.44;7738031;32;40191;-82
2023/10/23 13:35:36;;;;;;;4.68;1.20;;;;;;;25.27;31.56;99684.28;7738420;32;40826;-82
2023/10/23 13:39:52;;;;;;;5.07;1.20;;;;;;;25.60;31.19;99680.00;7738161;32;37924;-82
2023/10/23 13:44:09;;;;;;;3.40;1.50;;;;;;;25.68;32.21;99675.31;7738745;32;36812;-82
2023/10/23 13:48:26;;;;;;;1.48;1.00;;;;;;;25.47;32.00;99678.59;7738211;32;39300;-84
2023/10/23 13:52:50;;;;;;;4.35;1.10;;;;;;;25.64;31.68;99677.28;7738548;32;40014;-84
2023/10/23 13:57:06;;;;;;;6.05;1.45;;;;;;;24.70;33.25;99678.50;7736033;32;39212;-84
2023/10/23 14:01:23;;;;;;;3.40;1.17;;;;;;;24.97;32.89;99678.56;7735050;32;36906;-81
2023/10/23 14:05:39;;;;;;;6.50;1.40;;;;;;;25.33;32.91;99675.59;7736987;32;39341;-81
2023/10/23 14:09:56;;;;;;;1.62;1.02;;;;;;;25.15;33.14;99676.09;7737020;32;40855;-81
2023/10/23 14:14:12;;;;;;;3.50;1.12;;;;;;;25.15;33.44;99669.69;7737119;32;37668;-81
2023/10/23 14:18:28;;;;;;;2.62;1.05;;;;;;;25.38;32.54;99672.50;7737821;32;36655;-83
2023/10/23 14:22:45;;;;;;;4.25;1.10;;;;;;;25.52;32.32;99674.69;7737090;32;38858;-81
2023/10/23 14:27:02;;;;;;;2.92;1.20;;;;;;;26.05;31.88;99661.50;7736863;32;40884;-81
2023/10/23 14:31:18;;;;;;;3.85;1.30;;;;;;;26.69;30.42;99660.63;7737053;32;37549;-82
2023/10/23 14:35:37;;;;;;;4.82;1.20;;;;;;;28.46;28.09;99657.78;7737343;32;37193;-81
2023/10/23 14:39:54;;;;;;;4.82;1.30;;;;;;;31.46;23.76;99647.16;7736628;32;40114;-83
2023/10/23 14:44:15;;;;;;;2.85;1.15;;;;;;;33.50;21.09;99639.91;7738069;32;39754;-82
2023/10/23 14:48:31;;;;;;;3.62;1.00;;;;;;;34.25;19.90;99640.44;7737587;32;38684;-78
2023/10/23 14:52:48;;;;;;;2.30;1.10;;;;;;;33.44;20.81;99638.78;7737849;32;37046;-79
2023/10/23 14:57:08;;;;;;;4.65;1.15;;;;;;;34.41;19.76;99634.81;7737811;32;39320;-79
2023/10/23 15:01:26;;;;;;;1.98;1.00;;;;;;;34.00;19.99;99636.09;7736886;32;40594;-79
2023/10/23 15:05:45;;;;;;;4.40;0.90;;;;;;;33.79;20.30;99639.34;7737515;32;37865;-79
2023/10/23 15:10:02;;;;;;;5.35;1.23;;;;;;;32.69;21.59;99652.13;7737534;32;38086;-77
2023/10/23 15:14:18;;;;;;;2.85;1.12;;;;;;;31.31;23.75;99652.13;7737535;32;39339;-77
2023/10/23 15:18:35;;;;;;;2.33;1.00;;;;;;;29.69;25.99;99643.81;7737588;32;40779;-78
2023/10/23 15:22:52;;;;;;;4.55;1.02;;;;;;;29.63;26.99;99645.41;7737475;32;38055;-78
2023/10/23 15:27:09;;;;;;;2.25;1.17;;;;;;;28.62;28.29;99653.84;7736827;32;36748;-74
2023/10/23 15:31:25;;;;;;;1.35;0.90;;;;;;;27.49;30.32;99654.53;7737277;32;40136;-81
2023/10/23 15:35:42;;;;;;;2.72;1.10;;;;;;;26.55;31.97;99652.88;7737225;32;40871;-77
2023/10/23 15:39:59;;;;;;;3.12;1.08;;;;;;;25.63;33.40;99647.72;7736996;32;37997;-77
2023/10/23 15:44:16;;;;;;;3.92;1.50;;;;;;;24.76;35.01;99658.69;7737077;32;37077;-78
2023/10/23 15:48:32;;;;;;;4.10;1.37;;;;;;;23.92;36.84;99663.78;7736624;32;39312;-77
2023/10/23 15:52:49;;;;;;;4.57;1.42;;;;;;;22.91;39.13;99660.59;7736735;32;39865;-77
2023/10/23 15:57:05;;;;;;;3.12;1.40;;;;;;;22.42;40.27;99670.84;7736153;32;38720;-77
2023/10/23 16:01:21;;;;;;;5.70;1.65;;;;;;;22.17;41.00;99683.19;7736614;32;38097;-78
2023/10/23 16:05:38;;;;;;;9.90;2.08;;;;;;;21.92;41.60;99672.13;7736450;32;39300;-78
2023/10/23 16:09:54;;;;;;;7.32;1.65;;;;;;;21.71;42.24;99666.75;7736351;32;39751;-78
2023/10/23 16:14:11;;;;;;;4.93;1.60;;;;;;;21.27;43.26;99678.44;7739211;32;37843;-78
2023/10/23 16:18:28;;;;;;;2.80;1.60;;;;;;;21.09;43.64;99683.38;7739353;32;37795;-78
2023/10/23 16:22:45;;;;;;;4.57;1.65;;;;;;;20.91;44.02;99679.22;7735077;32;39367;-77
2023/10/23 16:27:01;;;;;;;5.50;2.12;;;;;;;20.78;44.89;99689.47;7737619;32;40218;-79
2023/10/23 16:31:17;;;;;;;8.05;3.40;;;;;;;20.35;46.61;99691.50;7738020;32;39054;-76
2023/10/23 16:35:35;;;;;;;6.53;2.92;;;;;;;20.30;46.81;99691.72;7738733;32;38204;-78
2023/10/23 16:39:51;;;;;;;5.15;2.47;;;;;;;20.20;46.89;99692.94;7724565;32;39504;-76
2023/10/23 16:44:08;;;;;;;5.65;2.12;;;;;;;20.00;47.56;99689.00;7738079;32;39020;-77
2023/10/23 16:48:24;;;;;;;7.05;1.52;;;;;;;19.75;47.92;99682.56;7738704;32;38504;-77
2023/10/23 16:52:44;;;;;;;2.53;1.33;;;;;;;19.44;48.52;99689.22;7738316;32;37568;-77
2023/10/23 16:57:00;;;;;;;2.45;1.48;;;;;;;19.40;48.70;99691.00;7737966;32;39369;-79
2023/10/23 17:01:18;;;;;;;3.33;1.92;;;;;;;19.36;48.36;99692.81;7738535;32;40874;-78
2023/10/23 17:05:37;;;;;;;5.57;1.92;;;;;;;19.17;49.25;99686.91;7738081;32;38163;-79
2023/10/23 17:10:02;;;;;;;5.32;2.25;;;;;;;19.13;49.41;99679.28;7738427;32;37759;-79
2023/10/23 17:14:18;;;;;;;4.57;2.08;;;;;;;18.96;49.92;99673.84;7737504;32;39411;-78
2023/10/23 17:18:34;;;;;;;5.62;1.45;;;;;;;18.89;50.51;99674.34;7737861;32;40751;-78
2023/10/23 17:22:51;;;;;;;3.35;1.60;;;;;;;18.97;49.95;99669.91;7737615;32;37864;-80
2023/10/23 17:27:11;;;;;;;5.55;1.70;;;;;;;18.64;50.81;99677.94;7737785;32;37917;-79
2023/10/23 17:31:28;;;;;;;2.50;1.77;;;;;;;18.46;51.35;99682.72;7738307;32;40488;-79
2023/10/23 17:35:52;;;;;;;5.80;2.00;;;;;;;18.44;51.44;99676.69;7737649;32;39721;-78
2023/10/23 17:40:14;;;;;;;4.93;1.70;;;;;;;18.41;51.74;99669.09;7725437;32;38489;-78
2023/10/23 17:44:33;;;;;;;4.57;2.33;;;;;;;18.25;52.44;99677.88;7737683;32;36987;-79
2023/10/23 17:48:51;;;;;;;4.40;2.25;;;;;;;18.29;52.47;99673.31;7737729;32;38832;-83
2023/10/23 17:53:09;;;;;;;4.37;2.20;;;;;;;18.27;52.88;99674.78;7737493;32;39761;-79
2023/10/23 17:57:28;;;;;;;7.80;2.70;;;;;;;18.32;53.00;99677.38;7737313;32;37914;-80
2023/10/23 18:01:46;;;;;;;7.85;2.58;;;;;;;18.31;53.30;99679.31;7737891;32;36023;-80
2023/10/23 18:06:04;;;;;;;4.37;2.55;;;;;;;18.20;53.88;99686.31;7736809;32;39359;-80
2023/10/23 18:10:22;;;;;;;5.72;2.80;;;;;;;18.17;53.91;99682.22;7723258;32;39739;-79
2023/10/23 18:14:39;;;;;;;6.95;2.80;;;;;;;18.12;54.26;99678.84;7737042;32;37663;-80
2023/10/23 18:18:57;;;;;;;7.57;2.70;;;;;;;18.19;53.89;99673.63;7736917;32;37112;-79
2023/10/23 18:23:15;;;;;;;7.95;3.83;;;;;;;18.12;53.99;99663.09;7737139;32;38856;-80
2023/10/23 18:27:31;;;;;;;5.87;2.97;;;;;;;18.00;54.33;99671.22;7733451;32;40854;-82
2023/10/23 18:31:48;;;;;;;6.20;2.83;;;;;;;17.87;54.40;99670.25;7736761;32;38406;-81
2023/10/23 18:36:12;;;;;;;8.52;3.20;;;;;;;17.67;54.79;99662.56;7735423;32;36849;-82
2023/10/23 18:40:28;;;;;;;5.97;3.40;;;;;;;17.69;54.53;99665.81;7724373;32;39978;-81
2023/10/23 18:44:46;;;;;;;10.10;3.20;;;;;;;17.67;54.66;99660.63;7737298;32;39926;-80
2023/10/23 18:49:03;;;;;;;7.55;3.22;;;;;;;17.53;54.62;99649.72;7737068;32;37848;-81
2023/10/23 18:53:20;;;;;;;10.82;3.50;;;;;;;17.33;55.07;99658.59;7737105;32;37869;-81
2023/10/23 18:57:36;;;;;;;7.35;2.58;;;;;;;17.19;55.83;99662.28;7737127;32;39144;-81
2023/10/23 19:01:52;;;;;;;5.40;2.83;;;;;;;17.19;55.81;99662.28;7737232;32;39687;-81
2023/10/23 19:06:09;;;;;;;9.50;4.10;;;;;;;17.12;55.59;99656.44;7727045;32;37911;-80
2023/10/23 19:10:25;;;;;;;6.32;3.85;;;;;;;16.69;58.56;99665.28;7723327;32;37921;-81
2023/10/23 19:14:41;;;;;;;8.48;3.58;;;;;;;16.63;58.15;99659.09;7723349;32;40098;-79
2023/10/23 19:18:58;;;;;;;7.93;3.47;;;;;;;16.62;57.99;99662.16;7729356;32;40738;-80
2023/10/23 19:23:15;;;;;;;9.93;3.33;;;;;;;16.43;58.48;99667.88;7723133;32;38756;-81
2023/10/23 19:27:31;;;;;;;5.07;2.37;;;;;;;16.33;58.56;99653.28;7707726;32;37462;-82
2023/10/23 19:31:51;;;;;;;7.78;2.90;;;;;;;16.15;58.82;99648.78;7723058;32;39043;-81
2023/10/23 19:36:09;;;;;;;9.15;3.97;;;;;;;16.06;59.33;99662.44;7724968;32;39725;-81
2023/10/23 19:40:27;;;;;;;8.80;4.07;;;;;;;15.81;61.26;99663.03;7721525;32;38856;-82
2023/10/23 19:44:45;;;;;;;9.80;3.80;;;;;;;16.24;59.98;99652.38;7722713;32;36973;-81
2023/10/23 19:49:02;;;;;;;9.40;3.95;;;;;;;16.42;59.44;99649.75;7729216;32;40012;-80
2023/10/23 19:53:20;;;;;;;6.18;3.47;;;;;;;16.14;60.71;99656.22;7731677;32;40763;-80
2023/10/23 19:57:37;;;;;;;9.60;4.18;;;;;;;16.25;60.40;99642.22;7730046;32;38488;-80
2023/10/23 20:01:56;;;;;;;12.50;5.18;;;;;;;16.41;59.76;99628.88;7731292;32;37018;-81
2023/10/23 20:06:13;;;;;;;14.50;5.68;;;;;;;16.27;60.56;99631.69;7732568;32;40688;-80
2023/10/23 20:10:29;;;;;;;8.90;5.15;;;;;;;16.37;60.56;99639.69;7729460;32;40805;-81